LETO/TOJ METAR and TAF weather

Enter ICAO airport designator
Station Type Date Time Source
LETO METAR 2022/01/18 06:30 UTC NOAA

LETO 180630Z 02003KT 350V050 CAVOK M04/M06 Q1031 NOSIG


Station Type Date Time Source
LETO Decoded METAR 2022/01/18 06:30 UTC NOAA

Madrid / Torrejon, Spain (LETO) 40-29N 003-27W 611M
Jan 18, 2022 - 01:30 AM EST / 2022.01.18 0630 UTC
Wind: from the NNE (020 degrees) at 3 MPH (3 KT) (direction variable):0
Visibility: greater than 7 mile(s):0
Temperature: 24 F (-4 C)
Dew Point: 21 F (-6 C)
Relative Humidity: 85%
Pressure (altimeter): 30.45 in. Hg (1031 hPa)
ob: LETO 180630Z 02003KT 350V050 CAVOK M04/M06 Q1031 NOSIG
cycle: 6

Station Type Date Time Source
LETO TAF 2022/01/18 06:27 UTC NOAA

TAF LETO 180500Z 1806/1906 VRB04KT CAVOK TX11/1815Z TNM04/1807Z

Example: see airport list